Goldman, Louisiana
Current Conditions -  °F | °C
As of 3:15 PM on Friday 31 Oct 2014 (Local Time) from KHEZ Reporting Station
Few Clouds Few Clouds  
Wind Chill: 68°   Ceiling: Unl
Heat Index: 68°   Visibility: 10mi
Dew Point: 46°   Wind: 14mph
Humidity: 46%   Direction: 10°N
Pressure: 30.1"   Gusts: 20mph
Location:  31.835°N, 91.3655°W
Report Text: KHEZ 312015Z AUTO 01012G17KT 10SM FEW049 20/08 A3010 RMK AO1
Loading
Personal Weather Stations






























Interactive Weather Map
Tropical Storm Tracking
New forecast layout! Learn more

10-Day Weather Forecast

Advertisements
Track Severe Weather on mobile